Time;durP1;ratioP1;P1;durP2;ratioP2;P2;SDS_P1;SDS_P2;PMS_P1;PMS_P2;Temp;Humidity;BMP_temperature;BMP_pressure;BME280_temperature;BME280_humidity;BME280_pressure;Samples;Min_cycle;Max_cycle;Signal;HPM_P1;HPM_P2
2024/01/04 00:01:55;;;;;;;;;1.00;1.00;;;;;10.39;70.57;99993.22;5078798;28;45346;-78
2024/01/04 00:04:20;;;;;;;;;3.00;2.50;;;;;10.48;70.34;100011.69;5076625;28;45294;-76
2024/01/04 00:06:46;;;;;;;;;3.00;1.50;;;;;10.26;70.41;99980.41;5076606;28;45563;-78
2024/01/04 00:09:11;;;;;;;;;3.00;2.00;;;;;10.54;70.96;100045.59;5077923;28;45428;-78
2024/01/04 00:11:37;;;;;;;;;0.67;0.67;;;;;10.38;70.76;100023.44;5075713;28;45566;-77
2024/01/04 00:14:05;;;;;;;;;2.00;1.00;;;;;10.27;70.79;100008.63;5075143;28;46785;-78
2024/01/04 00:16:32;;;;;;;;;3.67;2.00;;;;;10.50;71.28;100052.22;5057965;28;45450;-77
2024/01/04 00:18:58;;;;;;;;;2.00;1.00;;;;;10.49;70.90;100049.72;5057863;28;45379;-77
2024/01/04 00:21:25;;;;;;;;;1.00;1.00;;;;;10.27;70.90;100013.94;5076419;28;45557;-78
2024/01/04 00:23:50;;;;;;;;;3.00;1.50;;;;;10.40;70.95;100054.16;5075998;28;45649;-78
2024/01/04 00:26:15;;;;;;;;;6.00;3.00;;;;;10.40;70.83;100056.00;5057546;28;45572;-76
2024/01/04 00:28:41;;;;;;;;;2.00;1.00;;;;;10.20;70.75;100029.63;5075439;28;45588;-76
2024/01/04 00:31:06;;;;;;;;;3.67;2.00;;;;;9.94;71.20;99992.50;5075780;28;45308;-76
2024/01/04 00:33:31;;;;;;;;;2.75;0.00;;;;;10.38;71.09;100079.22;5056780;28;47044;-77
2024/01/04 00:35:57;;;;;;;;;3.00;3.00;;;;;10.28;70.88;100058.13;5075155;28;45556;-77
2024/01/04 00:38:22;;;;;;;;;0.25;0.25;;;;;10.33;71.50;100067.25;5075530;28;45327;-79
2024/01/04 00:40:47;;;;;;;;;3.67;2.00;;;;;10.07;71.28;100042.53;5075289;28;45783;-77
2024/01/04 00:43:13;;;;;;;;;0.00;0.00;;;;;10.23;70.63;100066.56;5074639;28;46351;-76
2024/01/04 00:45:38;;;;;;;;;2.00;1.00;;;;;10.29;71.37;100086.34;5073945;28;45473;-76
2024/01/04 00:48:04;;;;;;;;;2.00;1.00;;;;;10.29;71.63;100092.50;5074397;28;45323;-76
2024/01/04 00:50:29;;;;;;;;;4.00;3.00;;;;;10.18;71.18;100073.28;5056311;28;45478;-78
2024/01/04 00:52:54;;;;;;;;;1.00;1.00;;;;;10.29;71.48;100096.97;5055557;28;45346;-77
2024/01/04 00:55:20;;;;;;;;;1.00;1.00;;;;;10.02;71.01;100045.66;5074528;28;45291;-76
2024/01/04 00:57:46;;;;;;;;;2.33;1.67;;;;;10.03;71.24;100071.25;5074717;28;45457;-77
2024/01/04 01:00:12;;;;;;;;;3.00;1.25;;;;;10.28;71.16;100108.59;5074709;28;45542;-76
2024/01/04 01:02:37;;;;;;;;;2.00;0.00;;;;;9.95;70.69;100065.84;5074012;28;45909;-77
2024/01/04 01:05:03;;;;;;;;;3.67;1.33;;;;;10.31;70.68;100121.56;5074293;28;45398;-77
2024/01/04 01:07:28;;;;;;;;;4.33;1.00;;;;;10.05;71.14;100074.56;5074298;28;45345;-75
2024/01/04 01:09:53;;;;;;;;;6.67;1.67;;;;;10.33;71.43;100124.88;5074152;28;45430;-76
2024/01/04 01:12:19;;;;;;;;;2.67;1.00;;;;;10.34;70.90;100126.56;5074384;28;46152;-76
2024/01/04 01:14:45;;;;;;;;;2.00;1.00;;;;;10.32;71.43;100134.69;5074056;28;45378;-75
2024/01/04 01:17:10;;;;;;;;;2.33;2.33;;;;;10.31;71.63;100134.84;5075625;28;45427;-77
2024/01/04 01:19:37;;;;;;;;;4.33;3.00;;;;;10.19;71.76;100117.44;5077756;28;45481;-74
2024/01/04 01:22:02;;;;;;;;;4.00;1.67;;;;;10.23;71.12;100134.81;5077691;28;45343;-77
2024/01/04 01:24:27;;;;;;;;;4.00;2.00;;;;;10.22;71.10;100125.16;5059855;28;45574;-77
2024/01/04 01:26:53;;;;;;;;;4.67;2.00;;;;;10.27;71.80;100138.81;5078954;28;45457;-76
2024/01/04 01:29:18;;;;;;;;;3.67;2.00;;;;;10.21;71.62;100126.13;5080343;28;45482;-75
2024/01/04 01:31:43;;;;;;;;;3.67;2.00;;;;;10.25;71.02;100144.28;5080972;28;47510;-75
2024/01/04 01:34:09;;;;;;;;;4.33;2.00;;;;;10.27;71.57;100141.47;5081214;28;45357;-77
2024/01/04 01:36:34;;;;;;;;;2.00;2.00;;;;;10.12;71.49;100127.06;5061332;28;45339;-75
2024/01/04 01:39:00;;;;;;;;;1.00;1.00;;;;;9.89;71.21;100101.00;5077870;28;45439;-76
2024/01/04 01:41:26;;;;;;;;;0.00;0.00;;;;;10.19;70.95;100144.03;5077090;28;46275;-76
2024/01/04 01:43:51;;;;;;;;;1.00;1.00;;;;;10.27;71.33;100154.75;5076635;28;45401;-77
2024/01/04 01:46:18;;;;;;;;;5.67;2.00;;;;;10.15;71.30;100153.28;5077665;28;45445;-76
2024/01/04 01:48:43;;;;;;;;;4.00;1.67;;;;;10.15;71.04;100145.31;5060643;28;45304;-75
2024/01/04 01:51:10;;;;;;;;;1.33;0.67;;;;;10.10;71.12;100144.97;5060300;28;45415;-76
2024/01/04 01:53:36;;;;;;;;;0.67;0.67;;;;;10.11;71.03;100147.47;5078142;28;45403;-76
2024/01/04 01:56:03;;;;;;;;;0.33;0.33;;;;;10.24;70.91;100171.84;5079838;28;45514;-76
2024/01/04 01:58:28;;;;;;;;;1.00;0.00;;;;;9.96;71.28;100133.91;5078276;28;45406;-77
2024/01/04 02:00:54;;;;;;;;;4.00;2.67;;;;;10.21;71.42;100176.59;5077600;28;45416;-75
2024/01/04 02:03:19;;;;;;;;;3.00;1.67;;;;;10.06;71.30;100158.56;5077984;28;45294;-78
2024/01/04 02:05:48;;;;;;;;;3.00;2.00;;;;;9.97;71.43;100134.75;5076878;28;45788;-77
2024/01/04 02:08:14;;;;;;;;;5.67;2.67;;;;;9.95;71.51;100153.47;5058627;28;45557;-76
2024/01/04 02:10:39;;;;;;;;;3.67;2.67;;;;;10.15;71.19;100182.50;5076391;28;45552;-77
2024/01/04 02:13:05;;;;;;;;;2.00;1.00;;;;;10.14;72.06;100188.81;5076910;28;45346;-77
2024/01/04 02:15:30;;;;;;;;;1.67;1.67;;;;;10.11;71.87;100199.75;5082515;28;45439;-77
2024/01/04 02:17:56;;;;;;;;;1.33;0.00;;;;;9.79;72.13;100153.34;5076575;28;45524;-77
2024/01/04 02:20:21;;;;;;;;;1.33;1.00;;;;;10.09;72.10;100209.69;5076240;28;45421;-77
2024/01/04 02:22:48;;;;;;;;;2.00;2.00;;;;;10.11;72.15;100210.38;5076555;28;45594;-75
2024/01/04 02:25:13;;;;;;;;;2.00;1.33;;;;;10.09;72.05;100217.66;5076394;28;45566;-76
2024/01/04 02:27:39;;;;;;;;;4.00;2.00;;;;;10.08;71.76;100211.53;5057882;28;45570;-76
2024/01/04 02:30:05;;;;;;;;;2.67;1.33;;;;;10.05;72.12;100212.66;5075506;28;46059;-77
2024/01/04 02:32:30;;;;;;;;;1.67;0.67;;;;;10.04;71.40;100218.97;5075774;28;45450;-76
2024/01/04 02:34:55;;;;;;;;;2.00;1.67;;;;;10.04;71.49;100224.28;5076243;28;45551;-76
2024/01/04 02:37:21;;;;;;;;;2.00;2.00;;;;;9.84;71.52;100182.13;5076783;28;45490;-76
2024/01/04 02:39:46;;;;;;;;;3.00;1.33;;;;;9.86;71.37;100190.75;5076556;28;45610;-77
2024/01/04 02:42:11;;;;;;;;;4.00;2.00;;;;;10.03;71.09;100224.44;5075889;28;45450;-77
2024/01/04 02:44:36;;;;;;;;;0.00;0.00;;;;;10.03;71.55;100235.06;5075622;28;45434;-76
2024/01/04 02:47:02;;;;;;;;;4.00;2.00;;;;;10.01;71.27;100240.53;5076104;28;45378;-74
2024/01/04 02:49:27;;;;;;;;;4.00;3.00;;;;;9.93;71.24;100228.97;5057246;28;47366;-77
2024/01/04 02:51:53;;;;;;;;;2.00;1.00;;;;;10.02;70.91;100244.84;5075614;28;45327;-76
2024/01/04 02:54:18;;;;;;;;;3.00;2.00;;;;;10.04;71.02;100248.19;5075807;28;45359;-76
2024/01/04 02:56:44;;;;;;;;;6.67;2.00;;;;;9.93;70.79;100228.97;5075787;28;45556;-74
2024/01/04 02:59:09;;;;;;;;;2.00;2.00;;;;;9.87;70.44;100221.63;5075224;28;46150;-74
2024/01/04 03:01:34;;;;;;;;;3.00;2.00;;;;;10.13;70.58;100259.69;5076038;28;45567;-76
2024/01/04 03:04:00;;;;;;;;;2.00;0.00;;;;;9.97;70.25;100233.81;5076386;28;45575;-76
2024/01/04 03:06:27;;;;;;;;;0.00;0.00;;;;;10.25;70.17;100263.00;5077376;28;45804;-78
2024/01/04 03:08:53;;;;;;;;;3.25;1.00;;;;;10.30;70.08;100258.88;5057482;28;47793;-76
2024/01/04 03:11:18;;;;;;;;;2.67;1.00;;;;;10.10;70.04;100230.78;5075379;28;45304;-77
2024/01/04 03:13:44;;;;;;;;;2.00;2.00;;;;;10.24;69.85;100234.75;5057474;28;45325;-77
2024/01/04 03:16:09;;;;;;;;;0.67;0.67;;;;;10.39;69.79;100253.63;5075608;28;45473;-77
2024/01/04 03:18:34;;;;;;;;;6.00;1.00;;;;;10.53;69.58;100272.50;5075343;28;45291;-77
2024/01/04 03:21:02;;;;;;;;;5.33;2.00;;;;;10.56;69.45;100269.53;5075844;28;45398;-76
2024/01/04 03:23:28;;;;;;;;;1.00;1.00;;;;;10.62;69.55;100274.25;5075561;28;45351;-77
2024/01/04 03:25:54;;;;;;;;;1.67;1.67;;;;;10.53;69.21;100264.53;5075727;28;45473;-76
2024/01/04 03:28:19;;;;;;;;;4.00;1.00;;;;;10.57;69.16;100259.72;5075276;28;45480;-76
2024/01/04 03:30:45;;;;;;;;;5.00;1.00;;;;;10.71;69.12;100295.56;5074916;28;45314;-76
2024/01/04 03:33:10;;;;;;;;;1.75;1.75;;;;;10.74;69.18;100292.59;5074938;28;45492;-76
2024/01/04 03:35:35;;;;;;;;;5.00;2.33;;;;;10.78;68.98;100293.94;5075087;28;45291;-75
2024/01/04 03:38:01;;;;;;;;;4.67;1.00;;;;;10.81;69.24;100282.97;5074699;28;45443;-77
2024/01/04 03:40:26;;;;;;;;;2.00;0.67;;;;;10.74;68.80;100276.63;5073828;28;45540;-75
2024/01/04 03:42:51;;;;;;;;;4.00;1.25;;;;;10.81;68.58;100285.63;5074882;28;45474;-76
2024/01/04 03:45:17;;;;;;;;;2.00;2.00;;;;;10.85;68.96;100287.84;5075087;28;45411;-74
2024/01/04 03:47:42;;;;;;;;;4.67;2.00;;;;;10.76;68.70;100267.50;5074739;28;46049;-76
2024/01/04 03:50:08;;;;;;;;;3.00;2.00;;;;;10.79;69.27;100274.34;5074459;28;45450;-77
2024/01/04 03:52:33;;;;;;;;;5.33;1.00;;;;;10.88;69.21;100287.53;5075137;28;45460;-76
2024/01/04 03:54:58;;;;;;;;;0.67;0.67;;;;;10.83;68.85;100276.53;5074642;28;45624;-75
2024/01/04 03:57:24;;;;;;;;;3.00;2.00;;;;;10.90;69.08;100288.22;5074428;28;45349;-76
2024/01/04 03:59:49;;;;;;;;;2.00;2.00;;;;;10.81;69.07;100282.97;5074558;28;45422;-75
2024/01/04 04:02:14;;;;;;;;;2.33;1.33;;;;;10.72;69.47;100263.50;5074753;28;45532;-75
2024/01/04 04:04:39;;;;;;;;;2.67;1.33;;;;;10.84;69.43;100282.69;5074698;28;45496;-77
2024/01/04 04:07:05;;;;;;;;;2.33;0.67;;;;;10.77;69.05;100271.84;5074853;28;45521;-75
2024/01/04 04:09:30;;;;;;;;;3.33;2.00;;;;;10.74;68.97;100285.44;5074382;28;45465;-75
2024/01/04 04:11:55;;;;;;;;;2.00;1.00;;;;;10.68;68.98;100285.25;5074331;28;45686;-75
2024/01/04 04:14:21;;;;;;;;;1.33;1.00;;;;;10.68;69.38;100283.41;5074368;28;45529;-78
2024/01/04 04:16:47;;;;;;;;;3.00;1.00;;;;;10.76;69.36;100306.56;5074245;28;45495;-77
2024/01/04 04:19:12;;;;;;;;;3.00;1.00;;;;;10.75;69.03;100305.72;5074365;28;45425;-78
2024/01/04 04:21:37;;;;;;;;;1.00;1.00;;;;;10.61;68.83;100290.31;5074709;28;45446;-76
2024/01/04 04:24:03;;;;;;;;;3.00;1.00;;;;;10.53;68.91;100284.97;5074670;28;45484;-76
2024/01/04 04:26:28;;;;;;;;;1.00;1.00;;;;;10.34;68.40;100259.41;5074699;28;46112;-77
2024/01/04 04:28:54;;;;;;;;;9.67;1.33;;;;;10.55;68.60;100314.88;5075096;28;45387;-76
2024/01/04 04:31:19;;;;;;;;;1.33;1.33;;;;;10.50;69.00;100318.00;5074098;28;45359;-76
2024/01/04 04:33:46;;;;;;;;;2.00;1.00;;;;;10.47;69.20;100312.16;5074244;28;45353;-77
2024/01/04 04:36:11;;;;;;;;;5.00;2.33;;;;;10.49;69.28;100321.66;5074291;28;45471;-77
2024/01/04 04:38:37;;;;;;;;;7.67;6.67;;;;;10.38;69.70;100324.53;5074162;28;45360;-77
2024/01/04 04:41:04;;;;;;;;;5.67;3.00;;;;;10.22;69.47;100301.34;5074269;28;45586;-76
2024/01/04 04:43:29;;;;;;;;;1.00;1.00;;;;;10.23;69.33;100310.13;5074308;28;45432;-77
2024/01/04 04:45:56;;;;;;;;;1.50;1.25;;;;;10.13;69.58;100299.53;5073295;28;45460;-76
2024/01/04 04:48:21;;;;;;;;;5.67;2.00;;;;;10.13;70.14;100310.16;5073777;28;45276;-77
2024/01/04 04:50:46;;;;;;;;;1.25;1.25;;;;;10.18;70.34;100326.47;5074005;28;46000;-77
2024/01/04 04:53:12;;;;;;;;;5.33;1.00;;;;;9.90;70.64;100298.31;5077134;28;45556;-76
2024/01/04 04:55:37;;;;;;;;;3.75;2.00;;;;;9.97;70.52;100296.72;5077380;28;46007;-76
2024/01/04 04:58:02;;;;;;;;;1.00;0.67;;;;;9.90;70.55;100295.66;5077605;28;45348;-75
2024/01/04 05:00:28;;;;;;;;;1.33;1.33;;;;;10.09;70.51;100335.38;5077266;28;45409;-76
2024/01/04 05:02:53;;;;;;;;;4.25;1.00;;;;;9.94;70.34;100316.44;5077452;28;45465;-76
2024/01/04 05:05:19;;;;;;;;;3.00;1.00;;;;;9.95;70.61;100339.38;5077167;28;45380;-75
2024/01/04 05:07:44;;;;;;;;;2.33;1.00;;;;;9.85;71.20;100314.72;5058614;28;45457;-77
2024/01/04 05:10:09;;;;;;;;;2.00;2.00;;;;;9.78;71.23;100316.28;5077143;28;45323;-77
2024/01/04 05:12:35;;;;;;;;;1.50;1.50;;;;;9.86;71.04;100334.13;5077575;28;45411;-76
2024/01/04 05:15:00;;;;;;;;;1.33;1.33;;;;;9.89;71.65;100344.44;5058946;28;46610;-77
2024/01/04 05:17:26;;;;;;;;;4.00;2.67;;;;;9.82;71.61;100336.25;5058545;28;45360;-75
2024/01/04 05:19:51;;;;;;;;;1.33;1.00;;;;;9.59;71.38;100311.06;5077533;28;45544;-76
2024/01/04 05:22:17;;;;;;;;;2.75;2.75;;;;;9.80;71.93;100354.13;5077195;28;45582;-76
2024/01/04 05:24:42;;;;;;;;;4.33;3.33;;;;;9.82;71.87;100359.31;5077280;28;46809;-76
2024/01/04 05:27:07;;;;;;;;;4.00;3.00;;;;;9.83;71.87;100359.16;5077185;28;45470;-76
2024/01/04 05:29:33;;;;;;;;;4.00;2.00;;;;;9.85;71.60;100366.97;5077446;28;45337;-75
2024/01/04 05:31:58;;;;;;;;;1.00;1.00;;;;;9.84;71.93;100376.75;5059049;28;45977;-75
2024/01/04 05:34:23;;;;;;;;;5.00;2.67;;;;;9.69;72.17;100357.84;5058788;28;46789;-75
2024/01/04 05:36:49;;;;;;;;;3.00;2.00;;;;;9.57;71.24;100331.63;5077268;28;45399;-75
2024/01/04 05:39:14;;;;;;;;;4.33;1.00;;;;;9.84;71.79;100379.41;5076934;28;45528;-75
2024/01/04 05:41:39;;;;;;;;;2.00;1.00;;;;;9.61;71.57;100344.47;5076628;28;45296;-75
2024/01/04 05:44:06;;;;;;;;;3.67;1.00;;;;;9.76;71.58;100377.47;5076592;28;45719;-76
2024/01/04 05:46:33;;;;;;;;;2.33;2.33;;;;;9.77;72.03;100381.81;5076367;28;45389;-76
2024/01/04 05:48:59;;;;;;;;;2.00;2.00;;;;;9.67;71.87;100364.28;5082311;28;45519;-76
2024/01/04 05:51:24;;;;;;;;;4.50;2.00;;;;;9.68;72.21;100373.91;5079010;28;45352;-76
2024/01/04 05:53:50;;;;;;;;;6.25;5.00;;;;;9.59;72.31;100358.84;5076230;28;46198;-75
2024/01/04 05:56:15;;;;;;;;;3.00;1.67;;;;;9.65;72.38;100375.03;5076511;28;45363;-76
2024/01/04 05:58:40;;;;;;;;;1.00;1.00;;;;;9.61;72.30;100378.13;5076458;28;45645;-76
2024/01/04 06:01:06;;;;;;;;;2.67;1.67;;;;;9.69;72.51;100394.16;5076680;28;45431;-76
2024/01/04 06:03:31;;;;;;;;;2.67;2.00;;;;;9.69;72.22;100389.69;5075112;28;46171;-76
2024/01/04 06:05:57;;;;;;;;;3.00;1.00;;;;;9.65;72.56;100409.53;5076185;28;45322;-75
2024/01/04 06:08:22;;;;;;;;;4.00;1.00;;;;;9.56;72.40;100386.53;5076456;28;45415;-76
2024/01/04 06:10:48;;;;;;;;;3.67;2.00;;;;;9.53;72.87;100386.81;5076424;28;45468;-76
2024/01/04 06:13:13;;;;;;;;;2.00;1.00;;;;;9.21;73.02;100331.53;5075748;28;46221;-76
2024/01/04 06:15:39;;;;;;;;;1.00;1.00;;;;;9.59;72.74;100396.84;5076172;28;45246;-76
2024/01/04 06:18:04;;;;;;;;;2.33;1.33;;;;;9.47;73.33;100381.25;5076108;28;45311;-77
2024/01/04 06:20:29;;;;;;;;;4.00;4.00;;;;;9.54;73.72;100399.09;5076441;28;45355;-76
2024/01/04 06:22:55;;;;;;;;;4.00;2.33;;;;;9.43;73.35;100381.56;5041022;28;46016;-77
2024/01/04 06:25:20;;;;;;;;;2.00;2.00;;;;;9.56;73.62;100402.44;5076196;28;45229;-78
2024/01/04 06:27:46;;;;;;;;;3.00;1.00;;;;;9.56;73.74;100401.59;5075979;28;45379;-76
2024/01/04 06:30:11;;;;;;;;;1.00;0.00;;;;;9.50;74.02;100392.41;5075812;28;45422;-76
2024/01/04 06:32:36;;;;;;;;;5.67;3.67;;;;;9.56;73.83;100412.22;5075349;28;46667;-77
2024/01/04 06:35:02;;;;;;;;;5.67;1.00;;;;;9.58;73.43;100416.41;5076538;28;45431;-74
2024/01/04 06:37:28;;;;;;;;;4.67;1.67;;;;;9.08;73.45;100323.88;5076847;28;45832;-77
2024/01/04 06:39:53;;;;;;;;;1.67;1.67;;;;;9.56;73.60;100393.66;5060844;28;45438;-76
2024/01/04 06:42:19;;;;;;;;;3.00;1.67;;;;;9.62;73.57;100406.34;5059129;28;54878;-77
2024/01/04 06:44:46;;;;;;;;;1.67;1.33;;;;;9.71;73.73;100421.38;5059943;28;45450;-77
2024/01/04 06:47:12;;;;;;;;;2.00;2.00;;;;;9.70;73.57;100411.75;5058449;28;45367;-76
2024/01/04 06:49:38;;;;;;;;;2.00;2.00;;;;;9.60;73.28;100413.59;5058483;28;45524;-76
2024/01/04 06:52:03;;;;;;;;;1.33;1.33;;;;;9.63;73.49;100426.59;5075993;28;45935;-76
2024/01/04 06:54:29;;;;;;;;;7.33;3.67;;;;;9.60;73.56;100405.63;5076021;28;45304;-77
2024/01/04 06:56:54;;;;;;;;;3.67;2.33;;;;;9.49;73.75;100381.97;5076058;28;45324;-76
2024/01/04 06:59:19;;;;;;;;;3.33;2.00;;;;;9.69;73.36;100418.88;5076323;28;45286;-76
2024/01/04 07:01:45;;;;;;;;;4.00;2.33;;;;;9.56;73.05;100391.81;5056853;28;46501;-77
2024/01/04 07:04:10;;;;;;;;;6.00;3.00;;;;;9.55;73.00;100389.31;5075822;28;45366;-78
2024/01/04 07:06:35;;;;;;;;;2.67;2.00;;;;;9.60;73.32;100400.31;5075819;28;45529;-76
2024/01/04 07:09:01;;;;;;;;;4.00;2.67;;;;;9.48;73.60;100373.16;5075801;28;45668;-76
2024/01/04 07:11:30;;;;;;;;;2.67;2.67;;;;;9.77;73.15;100432.25;5076847;28;46500;-76
2024/01/04 07:13:55;;;;;;;;;3.00;3.00;;;;;9.73;73.53;100427.38;5075427;28;45484;-75
2024/01/04 07:16:21;;;;;;;;;3.00;2.00;;;;;9.76;73.72;100443.03;5075888;28;45516;-76
2024/01/04 07:18:46;;;;;;;;;1.00;1.00;;;;;9.72;73.34;100452.25;5076068;28;45437;-76
2024/01/04 07:21:13;;;;;;;;;1.33;1.00;;;;;9.62;73.78;100430.25;5075301;28;45381;-76
2024/01/04 07:23:38;;;;;;;;;3.00;2.00;;;;;9.67;73.44;100454.53;5081024;28;45362;-77
2024/01/04 07:26:06;;;;;;;;;5.00;2.67;;;;;9.72;74.10;100465.53;5078706;28;45659;-78
2024/01/04 07:28:31;;;;;;;;;3.00;2.00;;;;;9.75;73.99;100465.25;5059109;28;45615;-77
2024/01/04 07:30:57;;;;;;;;;1.67;1.67;;;;;9.41;73.59;100404.75;5058058;28;46195;-78
2024/01/04 07:33:23;;;;;;;;;5.00;4.00;;;;;9.64;74.16;100441.53;5076573;28;45596;-77
2024/01/04 07:35:48;;;;;;;;;3.00;2.00;;;;;9.83;73.64;100464.53;5075665;28;45458;-78
2024/01/04 07:38:14;;;;;;;;;3.00;1.00;;;;;9.68;73.83;100440.28;5076080;28;45581;-77
2024/01/04 07:40:39;;;;;;;;;3.00;2.00;;;;;9.67;73.55;100435.94;5077940;28;45269;-78
2024/01/04 07:43:05;;;;;;;;;2.00;2.00;;;;;9.86;73.49;100461.56;5077949;28;45382;-77
2024/01/04 07:45:31;;;;;;;;;5.00;3.00;;;;;9.68;73.29;100434.97;5076328;28;45374;-75
2024/01/04 07:47:57;;;;;;;;;2.00;1.00;;;;;9.79;73.22;100432.09;5075905;28;45400;-77
2024/01/04 07:50:23;;;;;;;;;1.67;1.67;;;;;9.73;73.95;100433.53;5057225;28;45382;-77
2024/01/04 07:52:48;;;;;;;;;4.33;2.67;;;;;9.54;73.79;100414.19;5076211;28;45476;-78
2024/01/04 07:55:13;;;;;;;;;4.00;3.00;;;;;9.76;74.21;100450.97;5075504;28;45284;-77
2024/01/04 07:57:39;;;;;;;;;1.00;1.00;;;;;9.70;74.01;100451.56;5057816;28;45484;-76
2024/01/04 08:00:05;;;;;;;;;3.67;2.00;;;;;9.56;74.25;100433.47;5075830;28;45360;-76
2024/01/04 08:02:32;;;;;;;;;4.00;3.00;;;;;9.50;74.64;100426.09;5075859;28;45476;-78
2024/01/04 08:04:58;;;;;;;;;3.00;1.67;;;;;9.54;74.34;100430.13;5075647;28;45464;-78
2024/01/04 08:07:23;;;;;;;;;6.00;3.00;;;;;9.65;74.64;100453.84;5075556;28;45417;-76
2024/01/04 08:09:48;;;;;;;;;2.00;1.00;;;;;9.52;74.73;100432.06;5075698;28;46472;-76
2024/01/04 08:12:14;;;;;;;;;3.00;2.00;;;;;9.29;74.23;100395.28;5075211;28;45484;-77
2024/01/04 08:14:39;;;;;;;;;3.00;2.00;;;;;9.45;74.61;100422.06;5075632;28;45465;-75
2024/01/04 08:17:05;;;;;;;;;3.00;1.33;;;;;9.60;74.53;100450.75;5075626;28;45492;-75
2024/01/04 08:19:30;;;;;;;;;5.00;4.67;;;;;9.45;74.18;100411.44;5075856;28;45312;-77
2024/01/04 08:21:55;;;;;;;;;3.33;3.33;;;;;9.55;74.67;100431.78;5078067;28;45390;-79
2024/01/04 08:24:21;;;;;;;;;2.33;2.00;;;;;9.44;74.64;100415.06;5058020;28;45681;-79
2024/01/04 08:26:46;;;;;;;;;1.67;1.67;;;;;9.19;74.51;100362.63;5077795;28;45395;-79
2024/01/04 08:29:11;;;;;;;;;6.00;3.00;;;;;9.73;74.67;100453.94;5079147;28;45358;-77
2024/01/04 08:31:37;;;;;;;;;2.00;2.00;;;;;9.72;74.47;100460.22;5060665;28;45529;-78
2024/01/04 08:34:02;;;;;;;;;4.67;2.67;;;;;9.72;74.43;100447.78;5079589;28;45457;-78
2024/01/04 08:36:27;;;;;;;;;4.00;3.00;;;;;9.77;74.99;100455.31;5080134;28;45472;-78
2024/01/04 08:38:53;;;;;;;;;3.67;3.67;;;;;9.27;74.16;100370.72;5078993;28;45457;-80
2024/01/04 08:41:18;;;;;;;;;3.00;3.00;;;;;9.81;74.60;100451.41;5079046;28;45492;-76
2024/01/04 08:43:43;;;;;;;;;3.00;3.00;;;;;9.91;74.65;100449.53;5079328;28;45245;-78
2024/01/04 08:46:10;;;;;;;;;6.33;4.00;;;;;9.52;73.90;100358.59;5080238;28;45655;-79
2024/01/04 08:48:35;;;;;;;;;3.67;3.67;;;;;10.12;73.63;100435.16;5080241;28;46389;-77
2024/01/04 08:51:01;;;;;;;;;5.33;4.00;;;;;10.33;73.12;100454.38;5080121;28;45472;-79
2024/01/04 08:53:28;;;;;;;;;7.00;3.00;;;;;9.97;72.45;100369.25;5081412;28;45344;-78
2024/01/04 08:55:54;;;;;;;;;4.00;3.00;;;;;10.63;71.38;100430.09;5062532;28;45402;-77
2024/01/04 08:58:19;;;;;;;;;5.67;3.00;;;;;11.26;70.43;100437.94;5085052;28;45680;-75
2024/01/04 09:00:44;;;;;;;;;2.00;2.00;;;;;12.07;67.78;100453.53;5084428;28;45386;-77
2024/01/04 09:03:11;;;;;;;;;2.33;2.00;;;;;12.68;65.74;100448.88;5080599;28;45646;-79
2024/01/04 09:05:37;;;;;;;;;5.25;3.00;;;;;13.34;63.94;100447.88;5063682;28;45431;-76
2024/01/04 09:08:04;;;;;;;;;7.00;4.33;;;;;13.58;61.67;100439.81;5081597;28;51725;-77
2024/01/04 09:10:32;;;;;;;;;3.67;2.67;;;;;13.13;62.62;100431.53;5081661;28;45450;-78
2024/01/04 09:12:57;;;;;;;;;3.00;2.33;;;;;12.41;63.78;100418.84;5046452;28;45308;-78
2024/01/04 09:15:22;;;;;;;;;6.67;3.00;;;;;12.17;65.34;100411.59;5080291;28;45438;-76
2024/01/04 09:17:48;;;;;;;;;6.00;3.00;;;;;12.45;64.75;100422.84;5079101;28;45400;-77
2024/01/04 09:20:13;;;;;;;;;4.67;3.00;;;;;12.70;64.19;100463.69;5079266;28;45537;-79
2024/01/04 09:22:40;;;;;;;;;3.00;2.50;;;;;12.69;64.34;100459.38;5080071;28;45406;-77
2024/01/04 09:25:07;;;;;;;;;4.67;4.67;;;;;12.56;64.71;100458.16;5068558;28;45382;-78
2024/01/04 09:27:34;;;;;;;;;6.33;5.33;;;;;12.21;65.24;100432.59;5077227;28;45417;-76
2024/01/04 09:30:00;;;;;;;;;7.00;5.00;;;;;12.21;65.89;100449.41;5077989;28;45413;-77
2024/01/04 09:32:26;;;;;;;;;4.33;4.00;;;;;11.98;66.24;100435.84;5080155;28;45506;-79
2024/01/04 09:34:51;;;;;;;;;4.00;4.00;;;;;11.93;67.03;100456.81;5079186;28;45265;-76
2024/01/04 09:37:17;;;;;;;;;4.67;4.67;;;;;11.78;67.21;100443.25;5077654;28;46085;-78
2024/01/04 09:39:42;;;;;;;;;5.25;3.75;;;;;11.46;67.44;100416.44;5079383;28;45625;-79
2024/01/04 09:42:09;;;;;;;;;9.67;7.00;;;;;11.57;68.24;100456.91;5079619;28;45544;-79
2024/01/04 09:44:35;;;;;;;;;4.67;3.00;;;;;11.37;68.84;100433.31;5060017;28;45733;-79
2024/01/04 09:47:07;;;;;;;;;7.67;7.33;;;;;11.35;69.00;100440.63;5077737;28;45602;-78
2024/01/04 09:49:33;;;;;;;;;9.00;4.00;;;;;11.47;69.62;100450.88;5077916;28;45505;-79
2024/01/04 09:52:00;;;;;;;;;7.67;3.00;;;;;11.17;69.70;100406.91;5077878;28;45406;-78
2024/01/04 09:54:29;;;;;;;;;9.00;7.00;;;;;11.56;69.11;100451.75;5078459;28;45363;-78
2024/01/04 09:56:54;;;;;;;;;3.00;3.00;;;;;11.47;69.20;100418.94;5077424;28;45465;-78
2024/01/04 09:59:20;;;;;;;;;3.00;3.00;;;;;11.49;68.57;100398.31;5078476;28;45399;-78
2024/01/04 10:01:47;;;;;;;;;6.00;5.00;;;;;12.00;68.57;100449.00;5078196;28;45374;-77
2024/01/04 10:04:14;;;;;;;;;5.00;5.00;;;;;11.96;68.25;100411.19;5059933;28;45561;-78
2024/01/04 10:06:43;;;;;;;;;9.00;6.00;;;;;12.28;67.76;100434.44;5077915;28;47191;-78
2024/01/04 10:09:17;;;;;;;;;5.00;4.00;;;;;12.45;67.32;100441.50;5078468;28;45541;-78
2024/01/04 10:12:02;;;;;;;;;8.67;5.00;;;;;12.71;66.72;100446.69;5078670;28;45538;-78
2024/01/04 10:14:28;;;;;;;;;3.75;3.25;;;;;12.85;66.06;100447.88;5063893;28;45384;-78
2024/01/04 10:16:59;;;;;;;;;6.00;5.33;;;;;12.72;66.46;100421.69;5080950;28;46730;-79
2024/01/04 10:19:26;;;;;;;;;7.00;3.00;;;;;12.76;66.25;100446.19;5081432;28;45286;-77
2024/01/04 10:21:51;;;;;;;;;4.33;4.00;;;;;12.64;67.07;100434.19;5063650;28;45481;-76
2024/01/04 10:24:21;;;;;;;;;5.67;4.33;;;;;12.46;67.36;100416.50;5043114;28;45400;-78
2024/01/04 10:26:57;;;;;;;;;9.33;5.67;;;;;12.65;67.31;100438.53;5077845;28;46302;-79
2024/01/04 10:29:24;;;;;;;;;6.33;5.00;;;;;12.63;67.65;100437.88;5077365;28;45287;-78
2024/01/04 10:32:03;;;;;;;;;6.33;3.00;;;;;12.34;67.58;100396.47;5077490;28;45468;-77
2024/01/04 10:34:29;;;;;;;;;7.67;5.67;;;;;12.46;68.18;100421.84;5078556;28;45295;-79
2024/01/04 10:37:09;;;;;;;;;13.00;4.00;;;;;12.33;68.46;100407.31;5078300;28;45323;-77
2024/01/04 10:39:38;;;;;;;;;6.67;5.00;;;;;12.42;68.49;100417.84;5078909;28;45501;-78
2024/01/04 10:42:05;;;;;;;;;10.67;4.67;;;;;11.76;68.63;100316.53;5059847;28;45460;-78
2024/01/04 10:44:33;;;;;;;;;4.75;2.75;;;;;12.33;68.47;100425.97;5077150;28;45362;-79
2024/01/04 10:47:00;;;;;;;;;6.67;4.00;;;;;12.18;69.82;100417.75;5077084;28;46046;-79
2024/01/04 10:49:26;;;;;;;;;8.67;5.67;;;;;12.14;69.59;100417.25;5057335;28;45372;-77
2024/01/04 10:52:01;;;;;;;;;9.67;5.00;;;;;11.55;69.95;100327.59;5076540;28;45506;-77
2024/01/04 10:54:39;;;;;;;;;11.33;6.67;;;;;11.92;70.41;100371.72;5077657;28;45311;-81
2024/01/04 10:57:04;;;;;;;;;5.00;4.67;;;;;12.06;70.08;100392.41;5076947;28;46476;-76
2024/01/04 10:59:32;;;;;;;;;7.67;4.33;;;;;11.99;70.65;100392.22;5076662;28;45320;-77
2024/01/04 11:01:58;;;;;;;;;9.67;4.00;;;;;12.07;70.32;100399.41;5058363;28;45451;-76
2024/01/04 11:04:25;;;;;;;;;11.67;11.00;;;;;11.59;70.62;100327.13;5076985;28;45500;-79
2024/01/04 11:07:00;;;;;;;;;9.67;6.33;;;;;11.75;70.74;100363.63;5076636;28;46340;-79
2024/01/04 11:09:27;;;;;;;;;5.00;4.00;;;;;11.76;70.61;100359.97;5060408;28;45533;-77
2024/01/04 11:11:53;;;;;;;;;6.25;3.00;;;;;11.92;71.10;100393.03;5079447;28;45512;-78
2024/01/04 11:14:20;;;;;;;;;9.00;5.00;;;;;11.81;71.19;100379.03;5080023;28;45309;-77
2024/01/04 11:17:16;;;;;;;;;8.00;4.67;;;;;11.93;71.45;100394.69;5079706;28;45508;-78
2024/01/04 11:20:42;;;;;;;;;6.67;4.67;;;;;11.89;71.70;100394.19;5078666;28;45303;-78
2024/01/04 11:23:55;;;;;;;;;3.67;3.67;;;;;11.83;71.74;100387.69;4994134;28;45765;-78
2024/01/04 11:26:34;;;;;;;;;7.33;4.00;;;;;11.63;72.03;100343.63;4994045;28;45547;-79